Time;durP1;ratioP1;P1;durP2;ratioP2;P2;SDS_P1;SDS_P2;PMS_P1;PMS_P2;Temp;Humidity;BMP_temperature;BMP_pressure;BME280_temperature;BME280_humidity;BME280_pressure;Samples;Min_cycle;Max_cycle;Signal;HPM_P1;HPM_P2
2022/03/04 00:01:00;;;;;;;42.17;17.83;;;;;;;;;;5045429;28;20049;-64
2022/03/04 00:03:26;;;;;;;51.13;17.50;;;;;;;;;;5049557;28;20280;-65
2022/03/04 00:05:52;;;;;;;42.27;18.20;;;;;;;;;;5051059;28;20298;-63
2022/03/04 00:08:18;;;;;;;45.13;17.50;;;;;;;;;;5050751;28;20284;-65
2022/03/04 00:10:44;;;;;;;43.57;16.93;;;;;;;;;;5050219;28;20044;-63
2022/03/04 00:13:10;;;;;;;37.97;16.67;;;;;;;;;;5050591;28;20283;-63
2022/03/04 00:15:36;;;;;;;47.33;18.43;;;;;;;;;;5049795;28;20041;-63
2022/03/04 00:18:02;;;;;;;47.27;19.23;;;;;;;;;;5050033;28;20303;-63
2022/03/04 00:20:28;;;;;;;43.70;16.87;;;;;;;;;;5049651;28;20525;-63
2022/03/04 00:22:54;;;;;;;40.03;17.63;;;;;;;;;;5049938;28;20334;-63
2022/03/04 00:25:21;;;;;;;48.33;17.47;;;;;;;;;;5050394;28;20323;-63
2022/03/04 00:27:47;;;;;;;40.27;17.93;;;;;;;;;;5050569;28;20059;-63
2022/03/04 00:30:13;;;;;;;39.37;15.40;;;;;;;;;;5049332;28;20955;-63
2022/03/04 00:32:40;;;;;;;40.87;17.40;;;;;;;;;;5050118;28;20295;-63
2022/03/04 00:35:06;;;;;;;36.13;15.20;;;;;;;;;;5050146;28;20287;-63
2022/03/04 00:37:32;;;;;;;35.00;15.53;;;;;;;;;;5050122;28;20307;-63
2022/03/04 00:39:58;;;;;;;34.20;14.37;;;;;;;;;;5049909;28;20295;-63
2022/03/04 00:42:27;;;;;;;40.50;16.03;;;;;;;;;;5049390;28;20284;-63
2022/03/04 00:44:53;;;;;;;45.27;16.67;;;;;;;;;;5050023;28;20716;-63
2022/03/04 00:47:19;;;;;;;35.87;14.83;;;;;;;;;;5047801;28;20639;-63
2022/03/04 00:49:45;;;;;;;35.70;14.93;;;;;;;;;;5049823;28;20283;-63
2022/03/04 00:52:11;;;;;;;39.10;14.87;;;;;;;;;;5049832;28;20295;-63
2022/03/04 00:54:37;;;;;;;41.10;14.70;;;;;;;;;;5049646;28;20287;-63
2022/03/04 00:57:04;;;;;;;40.10;17.00;;;;;;;;;;5049314;28;20310;-63
2022/03/04 00:59:30;;;;;;;37.33;16.23;;;;;;;;;;5050100;28;20351;-63
2022/03/04 01:01:56;;;;;;;40.40;16.13;;;;;;;;;;5049733;28;20446;-63
2022/03/04 01:04:22;;;;;;;36.63;15.50;;;;;;;;;;5049279;28;20295;-63
2022/03/04 01:06:48;;;;;;;45.20;17.03;;;;;;;;;;5049890;28;20306;-63
2022/03/04 01:09:14;;;;;;;44.63;15.40;;;;;;;;;;5049439;28;20283;-63
2022/03/04 01:11:40;;;;;;;50.20;16.80;;;;;;;;;;5049583;28;20279;-63
2022/03/04 01:14:06;;;;;;;46.77;16.67;;;;;;;;;;5049169;28;20106;-63
2022/03/04 01:16:32;;;;;;;37.43;14.80;;;;;;;;;;5049084;28;20850;-63
2022/03/04 01:18:58;;;;;;;39.37;14.67;;;;;;;;;;5047594;28;20311;-63
2022/03/04 01:21:24;;;;;;;43.80;15.80;;;;;;;;;;5049604;28;20276;-63
2022/03/04 01:23:51;;;;;;;41.60;15.13;;;;;;;;;;5049212;28;20280;-63
2022/03/04 01:26:17;;;;;;;43.90;17.80;;;;;;;;;;5049539;28;20049;-63
2022/03/04 01:28:43;;;;;;;40.07;15.23;;;;;;;;;;5049101;28;20317;-63
2022/03/04 01:31:10;;;;;;;41.67;16.70;;;;;;;;;;5048947;28;20283;-63
2022/03/04 01:33:37;;;;;;;44.70;15.33;;;;;;;;;;5049492;28;20283;-63
2022/03/04 01:36:03;;;;;;;42.33;15.53;;;;;;;;;;5048269;28;20318;-63
2022/03/04 01:38:29;;;;;;;45.67;16.50;;;;;;;;;;5048833;28;20315;-63
2022/03/04 01:40:55;;;;;;;39.80;16.20;;;;;;;;;;5049196;28;20287;-63
2022/03/04 01:43:21;;;;;;;38.13;15.87;;;;;;;;;;5049253;28;20275;-63
2022/03/04 01:45:47;;;;;;;43.20;16.03;;;;;;;;;;5048628;28;20841;-63
2022/03/04 01:48:13;;;;;;;42.03;16.50;;;;;;;;;;5048322;28;20049;-63
2022/03/04 01:50:40;;;;;;;45.47;17.17;;;;;;;;;;5048756;28;20761;-63
2022/03/04 01:53:06;;;;;;;50.73;17.17;;;;;;;;;;5048519;28;20303;-63
2022/03/04 01:55:32;;;;;;;41.97;17.87;;;;;;;;;;5048672;28;20279;-63
2022/03/04 01:57:58;;;;;;;55.93;17.37;;;;;;;;;;5048686;28;20518;-63
2022/03/04 02:00:24;;;;;;;48.00;17.43;;;;;;;;;;5048351;28;20838;-63
2022/03/04 02:02:50;;;;;;;43.50;17.73;;;;;;;;;;5047962;28;20744;-63
2022/03/04 02:05:17;;;;;;;49.63;19.03;;;;;;;;;;5048938;28;20278;-63
2022/03/04 02:07:43;;;;;;;45.63;17.67;;;;;;;;;;5048451;28;20279;-63
2022/03/04 02:10:09;;;;;;;55.73;19.53;;;;;;;;;;5047087;28;20298;-63
2022/03/04 02:12:36;;;;;;;54.50;19.23;;;;;;;;;;5048456;28;20331;-63
2022/03/04 02:15:03;;;;;;;48.03;19.70;;;;;;;;;;5046800;28;20299;-63
2022/03/04 02:17:29;;;;;;;52.20;19.80;;;;;;;;;;5048265;28;21081;-63
2022/03/04 02:19:56;;;;;;;54.70;21.77;;;;;;;;;;5048115;28;20330;-63
2022/03/04 02:22:22;;;;;;;56.17;21.20;;;;;;;;;;5046626;28;20087;-63
2022/03/04 02:24:48;;;;;;;57.40;19.10;;;;;;;;;;5047529;28;20303;-63
2022/03/04 02:27:14;;;;;;;54.23;21.03;;;;;;;;;;5047833;28;20139;-63
2022/03/04 02:29:40;;;;;;;56.40;21.47;;;;;;;;;;5048028;28;20886;-63
2022/03/04 02:32:06;;;;;;;56.67;20.07;;;;;;;;;;5047827;28;20839;-63
2022/03/04 02:34:32;;;;;;;60.23;20.07;;;;;;;;;;5047810;28;20983;-63
2022/03/04 02:36:58;;;;;;;54.60;19.80;;;;;;;;;;5047930;28;20370;-63
2022/03/04 02:39:25;;;;;;;56.47;21.47;;;;;;;;;;5047505;28;20075;-63
2022/03/04 02:41:51;;;;;;;56.83;21.87;;;;;;;;;;5047936;28;20043;-63
2022/03/04 02:44:17;;;;;;;57.40;22.93;;;;;;;;;;5047793;28;20857;-63
2022/03/04 02:46:43;;;;;;;57.07;21.80;;;;;;;;;;5032960;28;20300;-63
2022/03/04 02:49:10;;;;;;;55.10;22.07;;;;;;;;;;5045416;28;20800;-63
2022/03/04 02:51:36;;;;;;;62.13;23.00;;;;;;;;;;5047471;28;20052;-63
2022/03/04 02:54:03;;;;;;;60.07;21.60;;;;;;;;;;5046709;28;20341;-63
2022/03/04 02:56:29;;;;;;;61.07;22.60;;;;;;;;;;5047645;28;20284;-65
2022/03/04 02:58:55;;;;;;;52.13;20.97;;;;;;;;;;5047742;28;20310;-63
2022/03/04 03:01:22;;;;;;;60.57;21.23;;;;;;;;;;5047759;28;20045;-63
2022/03/04 03:03:47;;;;;;;62.07;24.50;;;;;;;;;;5047581;28;20283;-63
2022/03/04 03:06:14;;;;;;;61.80;24.23;;;;;;;;;;5047634;28;20283;-63
2022/03/04 03:08:40;;;;;;;67.53;24.53;;;;;;;;;;5035200;28;20579;-63
2022/03/04 03:11:06;;;;;;;68.83;24.80;;;;;;;;;;5028125;28;20367;-63
2022/03/04 03:13:32;;;;;;;66.17;24.17;;;;;;;;;;5027696;28;20061;-64
2022/03/04 03:15:58;;;;;;;72.10;24.67;;;;;;;;;;5047470;28;20291;-62
2022/03/04 03:18:24;;;;;;;62.83;24.23;;;;;;;;;;5047967;28;20055;-62
2022/03/04 03:20:50;;;;;;;72.80;26.37;;;;;;;;;;5048352;28;20276;-63
2022/03/04 03:23:16;;;;;;;65.80;23.47;;;;;;;;;;5048181;28;20599;-63
2022/03/04 03:25:42;;;;;;;72.60;23.53;;;;;;;;;;5048240;28;20048;-63
2022/03/04 03:28:08;;;;;;;65.33;25.23;;;;;;;;;;5048640;28;20482;-63
2022/03/04 03:30:34;;;;;;;67.47;23.70;;;;;;;;;;5048038;28;20323;-63
2022/03/04 03:33:00;;;;;;;62.93;23.67;;;;;;;;;;5048007;28;20785;-63
2022/03/04 03:35:27;;;;;;;66.33;23.47;;;;;;;;;;5048538;28;20279;-63
2022/03/04 03:37:53;;;;;;;73.30;25.50;;;;;;;;;;5050920;28;20057;-64
2022/03/04 03:40:19;;;;;;;70.40;22.83;;;;;;;;;;5052144;28;20861;-63
2022/03/04 03:42:45;;;;;;;70.87;23.30;;;;;;;;;;5051935;28;20370;-63
2022/03/04 03:45:12;;;;;;;62.13;24.90;;;;;;;;;;5051010;28;20284;-63
2022/03/04 03:47:38;;;;;;;69.90;25.13;;;;;;;;;;5051864;28;20360;-63
2022/03/04 03:50:05;;;;;;;67.03;23.67;;;;;;;;;;5051407;28;20323;-63
2022/03/04 03:52:31;;;;;;;81.73;25.53;;;;;;;;;;5051569;28;20288;-63
2022/03/04 03:54:58;;;;;;;72.43;25.23;;;;;;;;;;5051532;28;20291;-63
2022/03/04 03:57:25;;;;;;;76.37;24.30;;;;;;;;;;5051680;28;20311;-63
2022/03/04 03:59:51;;;;;;;70.60;25.10;;;;;;;;;;5051784;28;20534;-63
2022/03/04 04:02:17;;;;;;;77.40;26.60;;;;;;;;;;5037924;28;20283;-63
2022/03/04 04:04:44;;;;;;;67.83;23.57;;;;;;;;;;5038605;28;20295;-63
2022/03/04 04:07:11;;;;;;;74.20;25.43;;;;;;;;;;5051897;28;20282;-63
2022/03/04 04:09:37;;;;;;;63.73;24.20;;;;;;;;;;5051141;28;20378;-63
2022/03/04 04:12:03;;;;;;;73.77;25.20;;;;;;;;;;5051792;28;20279;-63
2022/03/04 04:14:29;;;;;;;64.87;23.97;;;;;;;;;;5051424;28;20366;-63
2022/03/04 04:16:56;;;;;;;69.77;26.23;;;;;;;;;;5039904;28;20316;-63
2022/03/04 04:19:22;;;;;;;61.00;23.53;;;;;;;;;;5031127;28;20288;-63
2022/03/04 04:21:49;;;;;;;72.63;24.93;;;;;;;;;;5039748;28;20284;-63
2022/03/04 04:24:15;;;;;;;71.73;24.03;;;;;;;;;;5051059;28;20291;-63
2022/03/04 04:26:41;;;;;;;70.27;25.43;;;;;;;;;;5051212;28;20354;-63
2022/03/04 04:29:07;;;;;;;63.90;25.87;;;;;;;;;;5051069;28;20304;-63
2022/03/04 04:31:34;;;;;;;71.43;26.03;;;;;;;;;;5036740;28;20320;-63
2022/03/04 04:34:01;;;;;;;68.57;25.53;;;;;;;;;;5046480;28;20521;-63
2022/03/04 04:36:27;;;;;;;72.20;26.10;;;;;;;;;;5048230;28;20789;-63
2022/03/04 04:38:53;;;;;;;71.87;24.63;;;;;;;;;;5050554;28;20756;-63
2022/03/04 04:41:19;;;;;;;80.70;27.23;;;;;;;;;;5049829;28;20863;-63
2022/03/04 04:43:46;;;;;;;86.73;29.77;;;;;;;;;;5050301;28;20288;-63
2022/03/04 04:46:12;;;;;;;89.23;29.70;;;;;;;;;;5050539;28;20329;-62
2022/03/04 04:48:38;;;;;;;76.37;25.10;;;;;;;;;;5049373;28;20283;-63
2022/03/04 04:51:04;;;;;;;76.40;27.67;;;;;;;;;;5050523;28;20287;-63
2022/03/04 04:53:31;;;;;;;80.03;27.60;;;;;;;;;;5050635;28;20717;-63
2022/03/04 04:55:57;;;;;;;77.80;28.93;;;;;;;;;;5050328;28;20295;-63
2022/03/04 04:58:23;;;;;;;83.80;29.97;;;;;;;;;;5050672;28;20445;-63
2022/03/04 05:00:53;;;;;;;83.47;30.80;;;;;;;;;;5050310;28;20283;-63
2022/03/04 05:03:26;;;;;;;83.83;28.77;;;;;;;;;;5050157;28;20865;-63
2022/03/04 05:05:53;;;;;;;81.93;29.00;;;;;;;;;;5050227;28;20318;-63
2022/03/04 05:08:19;;;;;;;85.57;30.77;;;;;;;;;;5050469;28;20041;-63
2022/03/04 05:10:45;;;;;;;86.37;28.77;;;;;;;;;;5050059;28;20804;-63
2022/03/04 05:13:11;;;;;;;86.27;28.43;;;;;;;;;;5050141;28;20292;-62
2022/03/04 05:15:37;;;;;;;91.43;29.80;;;;;;;;;;5033655;28;20563;-63
2022/03/04 05:18:03;;;;;;;81.30;31.50;;;;;;;;;;5049965;28;20352;-63
2022/03/04 05:20:30;;;;;;;87.03;31.23;;;;;;;;;;5049564;28;20292;-63
2022/03/04 05:22:56;;;;;;;77.77;29.23;;;;;;;;;;5050041;28;20275;-63
2022/03/04 05:25:22;;;;;;;99.50;31.17;;;;;;;;;;5050162;28;20382;-62
2022/03/04 05:27:48;;;;;;;99.17;32.90;;;;;;;;;;5050009;28;20312;-63
2022/03/04 05:30:14;;;;;;;98.40;32.97;;;;;;;;;;5049844;28;20064;-63
2022/03/04 05:32:40;;;;;;;97.83;32.77;;;;;;;;;;5048852;28;20516;-63
2022/03/04 05:35:06;;;;;;;102.17;33.53;;;;;;;;;;5049505;28;20362;-63
2022/03/04 05:37:32;;;;;;;99.07;33.70;;;;;;;;;;5049429;28;20582;-63
2022/03/04 05:39:58;;;;;;;102.63;31.00;;;;;;;;;;5049122;28;20283;-63
2022/03/04 05:42:25;;;;;;;108.00;36.40;;;;;;;;;;5049472;28;20282;-63
2022/03/04 05:44:51;;;;;;;104.07;33.57;;;;;;;;;;5049144;28;20786;-63
2022/03/04 05:47:17;;;;;;;100.87;35.43;;;;;;;;;;5049746;28;20291;-63
2022/03/04 05:49:43;;;;;;;106.80;34.23;;;;;;;;;;5049378;28;20280;-63
2022/03/04 05:52:09;;;;;;;103.10;34.03;;;;;;;;;;5049055;28;20048;-63
2022/03/04 05:54:36;;;;;;;103.10;34.77;;;;;;;;;;5047218;28;20348;-63
2022/03/04 05:57:02;;;;;;;112.07;33.70;;;;;;;;;;5044127;28;20283;-63
2022/03/04 05:59:28;;;;;;;93.33;32.33;;;;;;;;;;5049379;28;20345;-63
2022/03/04 06:01:54;;;;;;;105.83;33.13;;;;;;;;;;5048753;28;20769;-63
2022/03/04 06:04:20;;;;;;;116.40;37.47;;;;;;;;;;5048726;28;20295;-63
2022/03/04 06:06:46;;;;;;;114.33;37.13;;;;;;;;;;5048111;28;20041;-63
2022/03/04 06:09:12;;;;;;;282.87;64.50;;;;;;;;;;5049466;28;20626;-63
2022/03/04 06:11:38;;;;;;;104.37;37.37;;;;;;;;;;5049592;28;20037;-63
2022/03/04 06:14:04;;;;;;;118.30;36.93;;;;;;;;;;5049480;28;20110;-63
2022/03/04 06:16:30;;;;;;;98.57;34.30;;;;;;;;;;5049236;28;20291;-63
2022/03/04 06:18:57;;;;;;;107.70;36.37;;;;;;;;;;5049027;28;20303;-63
2022/03/04 06:21:23;;;;;;;150.87;40.30;;;;;;;;;;5047419;28;21094;-63
2022/03/04 06:23:49;;;;;;;97.03;34.53;;;;;;;;;;5045865;28;20300;-63
2022/03/04 06:26:15;;;;;;;107.57;36.90;;;;;;;;;;5048785;28;20292;-63
2022/03/04 06:28:41;;;;;;;111.00;36.17;;;;;;;;;;5048332;28;20291;-63
2022/03/04 06:31:07;;;;;;;110.83;38.43;;;;;;;;;;5048391;28;20677;-63
2022/03/04 06:33:35;;;;;;;106.10;34.70;;;;;;;;;;5049117;28;20298;-63
2022/03/04 06:36:02;;;;;;;102.93;36.47;;;;;;;;;;5048372;28;20299;-63
2022/03/04 06:38:28;;;;;;;113.07;36.73;;;;;;;;;;5048310;28;20337;-63
2022/03/04 06:40:54;;;;;;;112.67;34.77;;;;;;;;;;5048056;28;20311;-63
2022/03/04 06:43:20;;;;;;;107.57;35.03;;;;;;;;;;5048672;28;20319;-63
2022/03/04 06:45:47;;;;;;;113.30;35.40;;;;;;;;;;5048458;28;20290;-63
2022/03/04 06:48:14;;;;;;;114.07;36.73;;;;;;;;;;5048214;28;20704;-63
2022/03/04 06:50:41;;;;;;;185.67;45.50;;;;;;;;;;5048043;28;20653;-63
2022/03/04 06:53:07;;;;;;;107.47;36.93;;;;;;;;;;5048309;28;20328;-63
2022/03/04 06:55:33;;;;;;;125.43;39.67;;;;;;;;;;5048533;28;20757;-63
2022/03/04 06:57:59;;;;;;;143.03;43.17;;;;;;;;;;5046136;28;20315;-63
2022/03/04 07:00:27;;;;;;;123.83;39.27;;;;;;;;;;5048466;28;20334;-63
2022/03/04 07:02:53;;;;;;;136.23;39.77;;;;;;;;;;5045438;28;20373;-63
2022/03/04 07:05:21;;;;;;;177.07;44.30;;;;;;;;;;5055365;28;20773;-63
2022/03/04 07:07:48;;;;;;;118.77;40.20;;;;;;;;;;5049531;28;20279;-63
2022/03/04 07:10:14;;;;;;;112.33;38.27;;;;;;;;;;5047132;28;20291;-63
2022/03/04 07:12:40;;;;;;;118.57;38.90;;;;;;;;;;5050589;28;20357;-63
2022/03/04 07:15:07;;;;;;;121.67;38.13;;;;;;;;;;5049333;28;20294;-63
2022/03/04 07:17:33;;;;;;;875.40;128.73;;;;;;;;;;5048178;28;20322;-63
2022/03/04 07:19:59;;;;;;;112.83;36.87;;;;;;;;;;5050683;28;20898;-63
2022/03/04 07:22:25;;;;;;;144.67;39.30;;;;;;;;;;5052499;28;20323;-63
2022/03/04 07:24:51;;;;;;;192.60;41.20;;;;;;;;;;5051694;28;20098;-63
2022/03/04 07:27:17;;;;;;;104.93;34.43;;;;;;;;;;5059530;28;20282;-63
2022/03/04 07:29:43;;;;;;;103.73;34.93;;;;;;;;;;5064624;28;20158;-63
2022/03/04 07:32:09;;;;;;;95.13;33.57;;;;;;;;;;5047055;28;20804;-63
2022/03/04 07:34:35;;;;;;;99.47;34.70;;;;;;;;;;5050411;28;20302;-63
2022/03/04 07:37:01;;;;;;;108.13;36.07;;;;;;;;;;5050634;28;20771;-63
2022/03/04 07:39:27;;;;;;;91.57;32.47;;;;;;;;;;5051164;28;20285;-64
2022/03/04 07:41:53;;;;;;;106.37;35.90;;;;;;;;;;5051046;28;20752;-63
2022/03/04 07:44:20;;;;;;;91.67;32.97;;;;;;;;;;5050693;28;20041;-63
2022/03/04 07:46:47;;;;;;;93.87;32.83;;;;;;;;;;5048734;28;20801;-63
2022/03/04 07:49:13;;;;;;;88.87;31.30;;;;;;;;;;5050797;28;20872;-63
2022/03/04 07:51:39;;;;;;;102.97;35.27;;;;;;;;;;5062448;28;20374;-63
2022/03/04 07:54:05;;;;;;;105.93;34.63;;;;;;;;;;5049581;28;20049;-64
2022/03/04 07:56:31;;;;;;;100.03;32.87;;;;;;;;;;5061220;28;20318;-63
2022/03/04 07:58:57;;;;;;;200.17;47.53;;;;;;;;;;5053189;28;20320;-64
2022/03/04 08:01:23;;;;;;;94.70;34.87;;;;;;;;;;5051867;28;20299;-64
2022/03/04 08:03:49;;;;;;;94.10;32.13;;;;;;;;;;5052707;28;20283;-64
2022/03/04 08:06:15;;;;;;;84.33;30.57;;;;;;;;;;5058614;28;20378;-64
2022/03/04 08:08:41;;;;;;;82.83;30.83;;;;;;;;;;5050660;28;20291;-64
2022/03/04 08:11:07;;;;;;;73.07;30.13;;;;;;;;;;5061556;28;20323;-64
2022/03/04 08:13:34;;;;;;;75.73;30.73;;;;;;;;;;5063876;28;20411;-64
2022/03/04 08:16:00;;;;;;;77.13;28.43;;;;;;;;;;5053553;28;20301;-64
2022/03/04 08:18:26;;;;;;;71.23;30.50;;;;;;;;;;5043809;28;20307;-64
2022/03/04 08:20:53;;;;;;;156.37;37.47;;;;;;;;;;5055214;28;20291;-64
2022/03/04 08:23:19;;;;;;;214.07;40.90;;;;;;;;;;5049363;28;20203;-64
2022/03/04 08:25:45;;;;;;;69.13;28.87;;;;;;;;;;5050322;28;20860;-64
2022/03/04 08:28:11;;;;;;;78.60;30.70;;;;;;;;;;5051279;28;20438;-64
2022/03/04 08:30:37;;;;;;;109.47;32.93;;;;;;;;;;5049879;28;20374;-64
2022/03/04 08:33:03;;;;;;;70.43;29.53;;;;;;;;;;5050172;28;20326;-64
2022/03/04 08:35:29;;;;;;;65.57;28.00;;;;;;;;;;5054692;28;20861;-64
2022/03/04 08:37:55;;;;;;;66.60;29.97;;;;;;;;;;5049125;28;20840;-64
2022/03/04 08:40:22;;;;;;;71.53;28.50;;;;;;;;;;5049299;28;20321;-64
2022/03/04 08:42:48;;;;;;;83.60;31.83;;;;;;;;;;5048847;28;20318;-64
2022/03/04 08:45:15;;;;;;;64.07;29.27;;;;;;;;;;5051475;28;20295;-64
2022/03/04 08:47:44;;;;;;;68.60;31.10;;;;;;;;;;5047512;28;20300;-64
2022/03/04 08:50:11;;;;;;;64.03;28.30;;;;;;;;;;5050789;28;20296;-64
2022/03/04 08:52:37;;;;;;;55.13;26.70;;;;;;;;;;5050346;28;20801;-64
2022/03/04 08:55:04;;;;;;;61.30;29.00;;;;;;;;;;5049130;28;20843;-65
2022/03/04 08:57:31;;;;;;;66.17;28.77;;;;;;;;;;5032491;28;20312;-64
2022/03/04 08:59:57;;;;;;;61.47;28.00;;;;;;;;;;5050603;28;20283;-64
2022/03/04 09:02:23;;;;;;;58.87;28.80;;;;;;;;;;5048662;28;20820;-64
2022/03/04 09:04:50;;;;;;;54.17;27.53;;;;;;;;;;5049863;28;20314;-64
2022/03/04 09:07:17;;;;;;;52.13;27.73;;;;;;;;;;5050153;28;20283;-64
2022/03/04 09:09:43;;;;;;;54.27;27.80;;;;;;;;;;5065854;28;20298;-64
2022/03/04 09:12:10;;;;;;;49.00;25.77;;;;;;;;;;5050129;28;20637;-65
2022/03/04 09:14:36;;;;;;;48.20;27.13;;;;;;;;;;5049253;28;20375;-64
2022/03/04 09:17:02;;;;;;;49.33;25.00;;;;;;;;;;5049559;28;20288;-65
2022/03/04 09:19:30;;;;;;;46.37;24.40;;;;;;;;;;5049986;28;20279;-64
2022/03/04 09:21:57;;;;;;;42.47;23.90;;;;;;;;;;5049688;28;20279;-64
2022/03/04 09:24:23;;;;;;;47.20;24.87;;;;;;;;;;5049913;28;20333;-64
2022/03/04 09:26:49;;;;;;;44.23;23.30;;;;;;;;;;5048974;28;21140;-64
2022/03/04 09:29:16;;;;;;;42.57;24.00;;;;;;;;;;5049530;28;20291;-64
2022/03/04 09:31:42;;;;;;;44.10;23.33;;;;;;;;;;5049751;28;20315;-64
2022/03/04 09:34:08;;;;;;;41.00;23.83;;;;;;;;;;5049471;28;20315;-64
2022/03/04 09:36:34;;;;;;;44.67;23.87;;;;;;;;;;5048293;28;20294;-64
2022/03/04 09:39:00;;;;;;;45.23;25.63;;;;;;;;;;5049488;28;20393;-64
2022/03/04 09:41:27;;;;;;;38.50;22.00;;;;;;;;;;5049322;28;20506;-64
2022/03/04 09:43:54;;;;;;;38.50;23.23;;;;;;;;;;5049631;28;20399;-64
2022/03/04 09:46:21;;;;;;;34.73;20.67;;;;;;;;;;5048491;28;20510;-64
2022/03/04 09:48:48;;;;;;;36.97;22.57;;;;;;;;;;5048735;28;20797;-64
2022/03/04 09:51:14;;;;;;;41.30;23.43;;;;;;;;;;5049208;28;20439;-64
2022/03/04 09:53:40;;;;;;;33.63;21.70;;;;;;;;;;5049361;28;20283;-64
2022/03/04 09:56:06;;;;;;;40.97;24.37;;;;;;;;;;5049106;28;20045;-64
2022/03/04 09:58:32;;;;;;;37.83;22.57;;;;;;;;;;5049061;28;20056;-64
2022/03/04 10:00:58;;;;;;;37.00;23.10;;;;;;;;;;5049284;28;20142;-64
2022/03/04 10:03:31;;;;;;;39.27;23.53;;;;;;;;;;5048840;28;20045;-64
2022/03/04 10:05:58;;;;;;;36.60;23.00;;;;;;;;;;5049237;28;20127;-64
2022/03/04 10:08:24;;;;;;;34.03;22.13;;;;;;;;;;5048897;28;20033;-64
2022/03/04 10:10:51;;;;;;;33.93;20.63;;;;;;;;;;5049040;28;20138;-64
2022/03/04 10:13:18;;;;;;;38.67;21.63;;;;;;;;;;5047766;28;20468;-64
2022/03/04 10:15:54;;;;;;;35.17;20.83;;;;;;;;;;5048105;28;20057;-64
2022/03/04 10:18:26;;;;;;;34.67;20.43;;;;;;;;;;5048826;28;20052;-64
2022/03/04 10:20:52;;;;;;;32.47;19.97;;;;;;;;;;5048471;28;20041;-64
2022/03/04 10:23:22;;;;;;;33.00;18.83;;;;;;;;;;5048539;28;20045;-64
2022/03/04 10:25:50;;;;;;;31.10;20.33;;;;;;;;;;5048727;28;20110;-64
2022/03/04 10:28:16;;;;;;;33.47;21.00;;;;;;;;;;5048396;28;20063;-64
2022/03/04 10:30:44;;;;;;;33.20;21.27;;;;;;;;;;5048640;28;20049;-64
2022/03/04 10:33:11;;;;;;;33.83;21.10;;;;;;;;;;5048684;28;20080;-64
2022/03/04 10:35:38;;;;;;;32.93;20.83;;;;;;;;;;5048538;28;20041;-64
2022/03/04 10:38:04;;;;;;;30.90;20.63;;;;;;;;;;5048387;28;20057;-64
2022/03/04 10:40:43;;;;;;;32.40;20.80;;;;;;;;;;5048622;28;20041;-64
2022/03/04 10:43:09;;;;;;;32.20;20.90;;;;;;;;;;5048084;28;20506;-64
2022/03/04 10:45:42;;;;;;;34.07;19.23;;;;;;;;;;5048252;28;20450;-64
2022/03/04 10:48:09;;;;;;;30.38;18.90;;;;;;;;;;5047790;28;20562;-64
2022/03/04 10:50:36;;;;;;;32.43;21.30;;;;;;;;;;5048759;28;20585;-64
2022/03/04 10:53:08;;;;;;;35.23;20.67;;;;;;;;;;5047639;28;20037;-64
2022/03/04 10:55:35;;;;;;;32.17;19.57;;;;;;;;;;5048393;28;20045;-64
2022/03/04 10:58:03;;;;;;;29.40;18.87;;;;;;;;;;5048396;28;20056;-64
2022/03/04 11:00:31;;;;;;;31.20;20.33;;;;;;;;;;5048074;28;20041;-64
2022/03/04 11:02:57;;;;;;;31.57;20.30;;;;;;;;;;5048253;28;20060;-64
2022/03/04 11:05:23;;;;;;;31.37;20.23;;;;;;;;;;5047197;28;20095;-65
2022/03/04 11:07:50;;;;;;;29.03;18.57;;;;;;;;;;5046988;28;20041;-64
2022/03/04 11:10:17;;;;;;;30.53;19.27;;;;;;;;;;5046742;28;20175;-64
2022/03/04 11:12:45;;;;;;;27.97;19.10;;;;;;;;;;5048002;28;20759;-64
2022/03/04 11:15:12;;;;;;;27.97;18.50;;;;;;;;;;5045458;28;20067;-65
2022/03/04 11:17:39;;;;;;;29.57;18.77;;;;;;;;;;5047624;28;20059;-65
2022/03/04 11:20:09;;;;;;;29.60;18.03;;;;;;;;;;5046963;28;20056;-65
2022/03/04 11:22:38;;;;;;;29.73;19.37;;;;;;;;;;5048466;28;20116;-64
2022/03/04 11:25:05;;;;;;;28.33;19.80;;;;;;;;;;5047590;28;20045;-64
2022/03/04 11:27:33;;;;;;;28.17;18.97;;;;;;;;;;5048180;28;20568;-65
2022/03/04 11:29:59;;;;;;;30.33;20.43;;;;;;;;;;5047532;28;20146;-64
2022/03/04 11:32:29;;;;;;;30.47;19.87;;;;;;;;;;5047697;28;20052;-64
2022/03/04 11:34:55;;;;;;;25.23;18.10;;;;;;;;;;5047457;28;20131;-65
2022/03/04 11:37:23;;;;;;;27.50;19.60;;;;;;;;;;5046514;28;20072;-66
2022/03/04 11:40:01;;;;;;;27.73;18.70;;;;;;;;;;5047057;28;20059;-64
2022/03/04 11:42:35;;;;;;;30.53;18.73;;;;;;;;;;5047439;28;20071;-65
2022/03/04 11:45:02;;;;;;;22.47;16.30;;;;;;;;;;5044717;28;20045;-65
2022/03/04 11:47:38;;;;;;;22.50;16.07;;;;;;;;;;5047467;28;20135;-65
2022/03/04 11:50:22;;;;;;;23.77;17.13;;;;;;;;;;5046144;28;20049;-65
2022/03/04 11:52:48;;;;;;;20.60;15.57;;;;;;;;;;5047714;28;20049;-65
2022/03/04 11:55:20;;;;;;;25.37;17.20;;;;;;;;;;5047505;28;20509;-65
2022/03/04 11:57:46;;;;;;;21.33;15.83;;;;;;;;;;5047500;28;20057;-65
2022/03/04 12:00:12;;;;;;;22.37;14.90;;;;;;;;;;5050963;28;20457;-65
2022/03/04 12:02:40;;;;;;;24.90;15.47;;;;;;;;;;5051248;28;20048;-65
2022/03/04 12:05:12;;;;;;;21.43;15.50;;;;;;;;;;5050948;28;20124;-65
2022/03/04 12:07:39;;;;;;;23.93;17.20;;;;;;;;;;5051370;28;20048;-65
2022/03/04 12:10:08;;;;;;;19.97;15.90;;;;;;;;;;5050791;28;20809;-65
2022/03/04 12:12:34;;;;;;;18.97;14.27;;;;;;;;;;5050276;28;20167;-65
2022/03/04 12:15:16;;;;;;;20.47;15.60;;;;;;;;;;5051019;28;20037;-65
2022/03/04 12:17:59;;;;;;;19.80;14.73;;;;;;;;;;5060379;28;20254;-65
2022/03/04 12:20:25;;;;;;;;;;;;;;;;;;5065398;28;20084;-65
2022/03/04 12:22:56;;;;;;;18.87;13.83;;;;;;;;;;5050567;28;20440;-65
2022/03/04 12:25:22;;;;;;;17.97;13.23;;;;;;;;;;5065064;28;20123;-65
2022/03/04 12:27:54;;;;;;;24.13;12.93;;;;;;;;;;5070784;28;20057;-65
2022/03/04 12:30:21;;;;;;;18.30;12.93;;;;;;;;;;5047463;28;20396;-65
2022/03/04 12:32:49;;;;;;;18.13;12.73;;;;;;;;;;5061564;28;20064;-65
2022/03/04 12:35:19;;;;;;;17.33;13.33;;;;;;;;;;5051237;28;20045;-65
2022/03/04 12:37:45;;;;;;;18.00;11.90;;;;;;;;;;5049893;28;20530;-65
2022/03/04 12:40:12;;;;;;;16.40;11.73;;;;;;;;;;5050745;28;20080;-65
2022/03/04 12:42:38;;;;;;;14.77;11.17;;;;;;;;;;5051248;28;20037;-65
2022/03/04 12:45:08;;;;;;;15.33;10.07;;;;;;;;;;5050558;28;20072;-65
2022/03/04 12:47:39;;;;;;;14.90;11.17;;;;;;;;;;5050561;28;20045;-65
2022/03/04 12:50:05;;;;;;;15.73;11.37;;;;;;;;;;5050525;28;20467;-65
2022/03/04 12:52:31;;;;;;;14.93;11.17;;;;;;;;;;5050261;28;20055;-65
2022/03/04 12:55:04;;;;;;;17.43;12.23;;;;;;;;;;5050246;28;20120;-65
2022/03/04 12:57:30;;;;;;;14.50;10.20;;;;;;;;;;5050264;28;20518;-65
2022/03/04 12:59:58;;;;;;;16.17;11.63;;;;;;;;;;5050129;28;20043;-65
2022/03/04 13:02:25;;;;;;;15.30;11.20;;;;;;;;;;5049927;28;20059;-65
2022/03/04 13:04:58;;;;;;;15.83;11.07;;;;;;;;;;5048783;28;20049;-65
2022/03/04 13:07:24;;;;;;;14.60;11.45;;;;;;;;;;5049835;28;20098;-65
2022/03/04 13:09:51;;;;;;;16.03;11.73;;;;;;;;;;5049813;28;20068;-65
2022/03/04 13:12:21;;;;;;;17.07;11.53;;;;;;;;;;5050276;28;20129;-65
2022/03/04 13:14:47;;;;;;;15.90;10.77;;;;;;;;;;5050083;28;20132;-65
2022/03/04 13:17:13;;;;;;;16.97;10.30;;;;;;;;;;5049632;28;20168;-65
2022/03/04 13:19:40;;;;;;;13.67;10.13;;;;;;;;;;5049987;28;20083;-65
2022/03/04 13:22:06;;;;;;;13.33;10.57;;;;;;;;;;5049710;28;20079;-65
2022/03/04 13:24:40;;;;;;;12.93;9.90;;;;;;;;;;5049652;28;20044;-65
2022/03/04 13:27:07;;;;;;;13.27;10.38;;;;;;;;;;5049398;28;20162;-64
2022/03/04 13:29:33;;;;;;;16.10;10.93;;;;;;;;;;5049977;28;20078;-65
2022/03/04 13:32:08;;;;;;;16.53;11.60;;;;;;;;;;5048253;28;20142;-65
2022/03/04 13:34:34;;;;;;;16.90;11.47;;;;;;;;;;5049381;28;20050;-65
2022/03/04 13:37:05;;;;;;;12.00;9.23;;;;;;;;;;5049505;28;20048;-65
2022/03/04 13:39:32;;;;;;;13.97;10.13;;;;;;;;;;5049608;28;20052;-65
2022/03/04 13:42:07;;;;;;;14.50;10.63;;;;;;;;;;5049134;28;20495;-65
2022/03/04 13:44:33;;;;;;;14.83;11.03;;;;;;;;;;5049450;28;20048;-65
2022/03/04 13:47:06;;;;;;;18.27;12.37;;;;;;;;;;5049183;28;20055;-65
2022/03/04 13:49:32;;;;;;;;;;;;;;;;;;5049863;28;20051;-65
2022/03/04 13:51:59;;;;;;;16.43;11.60;;;;;;;;;;5049004;28;20040;-65
2022/03/04 13:54:44;;;;;;;15.27;11.13;;;;;;;;;;5049129;28;20041;-65
2022/03/04 13:57:23;;;;;;;17.10;12.40;;;;;;;;;;5049116;28;20045;-65
2022/03/04 13:59:49;;;;;;;18.83;13.60;;;;;;;;;;5049247;28;20048;-65
2022/03/04 14:02:15;;;;;;;18.53;14.47;;;;;;;;;;5048499;28;20045;-65
2022/03/04 14:04:57;;;;;;;15.23;11.97;;;;;;;;;;5049125;28;20106;-65
2022/03/04 14:07:24;;;;;;;17.53;11.97;;;;;;;;;;5049004;28;20053;-65
2022/03/04 14:09:56;;;;;;;17.27;12.13;;;;;;;;;;5048118;28;20083;-65
2022/03/04 14:12:23;;;;;;;17.40;13.20;;;;;;;;;;5048599;28;20041;-65
2022/03/04 14:14:50;;;;;;;19.47;13.60;;;;;;;;;;5048941;28;20087;-65